x

East Superior -70 Nm Ne Marquette, Mi (45004) Wave Buoy

10:50pm - Thu 27th Aug 2015 All times are CDT. -5 hours from GMT.

  • Sig Wave height 0.3ft
  • Average Period 3s
  • Wind
    9mph
  • Sea Temp 47°f
  • Air Temp 51°f
  • Sea Pressure 1016.6mb
  • East Superior -70 Nm Ne Marquette, Mi
  • East Superior -70 Nm Ne Marquette, Mi

More Historic Weather Station data

Upgrade to MSW Pro to gain access to the past 30 days of data for over 8000 Wavebouys and Weather Stations around the globe.

Join Pro

Comparision Forecast

View Surf forecast
   
Thu 08/27 10:50pm 0.3ft  -  3s 9
mph
1016.6mb 47f 51f
9:50pm 0.3ft  -  3s 7
mph
1017.2mb 47f 51f
8:50pm 0.3ft  -  3s 7 9 mph 1017.7mb 47f 50f
7:50pm 0.3ft  -  3s 9 11 mph 1017.2mb 47f 51f
6:50pm 0.3ft  -  3s 7 9 mph 1017.6mb 47f 50f
5:50pm 0.3ft  -  3s 7 9 mph 1017.9mb 48f 51f
4:50pm 0.3ft  -  3s 7
mph
1018.2mb 48f 50f
3:50pm 0.3ft  -  3s 7
mph
1018.5mb 48f 50f
2:50pm 0.3ft  -  3s 4 7 mph 1019.2mb 47f 50f
1:50pm 0.3ft  -  3s 7
mph
1019.6mb 47f 50f
12:50pm 0.3ft  -  3s 9 11 mph 1020.1mb 46f 49f
11:50am 0.3ft  -  3s 7 9 mph 1020.5mb 45f 49f
10:50am 0.3ft  -  3s 9
mph
1021.2mb 45f 49f
9:50am 0.3ft  -  3s 9 11 mph 1021.2mb 45f 49f
8:50am 0.3ft  -  3s 9 11 mph 1021.5mb 45f 49f
7:50am 0.3ft  -  3s 11
mph
1021.2mb 45f 49f
6:50am 0.3ft  -  3s 7 9 mph 1020.8mb 45f 48f
5:50am 0.3ft  -  3s 9
mph
1020.3mb 46f 48f
4:50am 0.7ft  -  3s 7 9 mph 1020.1mb 45f 47f
3:50am 0.7ft  -  3s 7
mph
1020.2mb 45f 47f
2:50am 0.7ft  -  3s 7
mph
1020mb 45f 48f
1:50am 0.7ft  -  3s 4
mph
1020.3mb 45f 48f
12:50am 1ft 4s 3s 7
mph
1020.6mb 45f 48f
Wed 08/26 11:50pm 1ft 4s 3s 4 7 mph 1020.7mb 45f 47f
10:50pm 1ft 4s 3s 7
mph
1020.7mb 45f 48f
9:50pm 0.7ft  -  3s 9
mph
1020.5mb 45f 47f
8:50pm 1ft 3s 3s 7
mph
1020.1mb 45f 47f
7:50pm 1ft 3s 3s 9 11 mph 1019.8mb 45f 48f
6:50pm 1ft 4s 3s 9
mph
1019.7mb 45f 48f
5:50pm 1.3ft 3s 3s 7 9 mph 1019.6mb 45f 48f
4:50pm 1ft 3s 3s 4 7 mph 1019.7mb 45f 48f
3:50pm 1ft 3s 3s 9
mph
1019.6mb 45f 48f
2:50pm 1ft 3s 3s 9
mph
1019.7mb 45f 48f
1:50pm 1ft 4s 3s 9
mph
1019.8mb 45f 47f
12:50pm 1.3ft 3s 3s 9
mph
1019.5mb 45f 48f
11:50am 1.3ft 3s 3s 9
mph
1019.5mb 45f 48f
10:50am 1.3ft 4s 3s 11 13 mph 1019mb 45f 48f
9:50am 1.3ft 4s 3s 11
mph
1018.6mb 45f 47f
8:50am 1.6ft 4s 3s 11 13 mph 1018.3mb 45f 47f
7:50am 1.6ft 4s 4s 11
mph
1018.2mb 44f 47f
6:50am 1.6ft 4s 4s 11 13 mph 1017.5mb 44f 47f
5:50am 2ft 5s 4s 9 11 mph 1017.1mb 44f 47f
4:50am 1.6ft 5s 4s 9 11 mph 1016.6mb 44f 47f
3:50am 2ft 5s 4s 11
mph
1016.3mb 44f 48f
2:50am 1.6ft 4s 4s 9 11 mph 1015.8mb 44f 47f
1:50am 2ft 5s 4s 9 11 mph 1015.7mb 44f 47f
12:50am 2.5ft 5s 4s 9 11 mph 1015.7mb 44f 47f
Tue 08/25 11:50pm 2.5ft 5s 4s 11 13 mph 1015.4mb 44f 47f
10:50pm 2.5ft 5s 4s 11 13 mph 1015.3mb 45f 48f
9:50pm 2.5ft 5s 4s 13 16 mph 1015.1mb 45f 48f
8:50pm 2.5ft 5s 4s 16 18 mph 1014.9mb 45f 48f
7:50pm 3ft 5s 4s 13 16 mph 1014.4mb 45f 48f
6:50pm 3.5ft 5s 4s 18 20 mph 1014.1mb 45f 48f
5:50pm 3.5ft 5s 4s 18 20 mph 1013.6mb 45f 48f
4:50pm 3.5ft 4s 4s 18 20 mph 1013.1mb 45f 48f
3:50pm 3ft 5s 4s 16 18 mph 1012.7mb 45f 48f
2:50pm 3.5ft 6s 4s 13 16 mph 1012.5mb 45f 47f
1:50pm 3.5ft 6s 4s 13 16 mph 1012mb 45f 47f
12:50pm 3.5ft 6s 4s 13 16 mph 1011.7mb 45f 48f
11:50am 3.5ft 5s 4s 16 18 mph 1011.1mb 45f 48f
10:50am 3.5ft 6s 4s 16
mph
1010.8mb 45f 48f
9:50am 3.5ft 6s 4s 16 18 mph 1010.2mb 45f 48f
8:50am 3.5ft 6s 4s 16 20 mph 1009.7mb 45f 47f
7:50am 4ft 6s 5s 18 22 mph 1009.1mb 45f 48f
6:50am 3.5ft 5s 4s 18 20 mph 1008.6mb 45f 47f
5:50am 3.5ft 6s 4s 18 20 mph 1008.1mb 45f 48f
4:50am 4ft 6s 4s 18 20 mph 1007.7mb 45f 48f
3:50am 4ft 6s 4s 18 20 mph 1007.1mb 45f 48f
2:50am 4ft 6s 4s 18 20 mph 1006.9mb 45f 48f
1:50am 5ft 6s 5s 20 22 mph 1006.8mb 45f 48f
12:50am 5ft 6s 5s 20 25 mph 1006.7mb 45f 48f
Mon 08/24 11:50pm 5ft 6s 5s 18 22 mph 1006.5mb 45f 48f
10:50pm 5ft 6s 5s 20 25 mph 1006.4mb 45f 48f
9:50pm 4.5ft 6s 5s 18 20 mph 1006.3mb 45f 48f
8:50pm 5ft 6s 5s 18 22 mph 1006mb 45f 48f
7:50pm 5.5ft 6s 5s 18 22 mph 1005.6mb 45f 49f
6:50pm 6ft 7s 5s 18 22 mph 1005mb 45f 49f
5:50pm 5.5ft 6s 5s 20 25 mph 1004.4mb 45f 49f
4:50pm 6.5ft 7s 5s 22 25 mph 1003.8mb 46f 48f
3:50pm 7.5ft 7s 6s 22 27 mph 1003.2mb 46f 48f
2:50pm 7ft 7s 6s 25 29 mph 1002.5mb 46f 48f
1:50pm 7ft 7s 5s 25 29 mph 1002.1mb 46f 48f
12:50pm 7ft 7s 6s 25 29 mph 1001.7mb 46f 48f
11:50am 7.5ft 8s 6s 25 29 mph 1001.1mb 47f 48f
10:50am 7.5ft 7s 6s 25 29 mph 1000.7mb 47f 48f
8:50am 6.5ft 7s 6s 22 27 mph 1000.4mb 47f 50f
7:50am 6.5ft 7s 5s 18 22 mph 1000.6mb 47f 50f
6:50am 6.5ft 6s 5s 16 18 mph 1000.7mb 47f 49f
5:50am 5.5ft 6s 5s 9 11 mph 1000.7mb 47f 49f